Time;durP1;ratioP1;P1;durP2;ratioP2;P2;SDS_P1;SDS_P2;PMS_P1;PMS_P2;Temp;Humidity;BMP_temperature;BMP_pressure;BME280_temperature;BME280_humidity;BME280_pressure;Samples;Min_cycle;Max_cycle;Signal;HPM_P1;HPM_P2
2021/08/06 00:02:06;;;;;;;2.63;1.20;;;24.30;48.10;;;;;;5068806;28;20233;-70
2021/08/06 00:04:33;;;;;;;1.50;1.30;;;24.30;48.10;;;;;;5067225;28;20231;-70
2021/08/06 00:06:59;;;;;;;1.13;1.02;;;24.30;47.90;;;;;;5071739;28;20258;-71
2021/08/06 00:09:26;;;;;;;1.30;1.02;;;24.30;48.00;;;;;;5071587;28;20232;-70
2021/08/06 00:11:57;;;;;;;1.52;1.30;;;24.20;48.00;;;;;;5071173;28;20248;-71
2021/08/06 00:14:24;;;;;;;1.25;1.13;;;24.30;48.10;;;;;;5071411;28;20205;-70
2021/08/06 00:16:50;;;;;;;1.10;1.08;;;24.30;47.90;;;;;;5071239;28;20228;-70
2021/08/06 00:19:17;;;;;;;1.33;1.23;;;24.30;48.00;;;;;;5071833;28;20240;-70
2021/08/06 00:21:43;;;;;;;1.98;1.20;;;24.30;48.00;;;;;;5069196;28;20261;-71
2021/08/06 00:24:10;;;;;;;1.50;1.08;;;24.30;48.00;;;;;;5070524;28;20228;-70
2021/08/06 00:26:36;;;;;;;1.75;1.05;;;24.30;48.00;;;;;;5071038;28;20288;-71
2021/08/06 00:29:03;;;;;;;1.20;1.10;;;24.30;48.00;;;;;;5072233;28;20237;-72
2021/08/06 00:31:29;;;;;;;1.15;1.05;;;24.30;47.90;;;;;;5071370;28;20659;-71
2021/08/06 00:33:56;;;;;;;1.23;1.13;;;24.30;47.90;;;;;;5071479;28;20220;-71
2021/08/06 00:36:22;;;;;;;1.20;1.10;;;24.30;47.90;;;;;;5071095;28;20232;-70
2021/08/06 00:38:49;;;;;;;2.88;1.40;;;24.30;47.90;;;;;;5071440;28;20305;-71
2021/08/06 00:41:15;;;;;;;1.10;1.00;;;24.30;48.00;;;;;;5070661;28;20225;-70
2021/08/06 00:43:42;;;;;;;1.13;1.10;;;24.30;47.90;;;;;;5071402;28;20240;-71
2021/08/06 00:46:12;;;;;;;1.20;1.00;;;24.20;47.80;;;;;;5071403;28;20236;-70
2021/08/06 00:48:39;;;;;;;1.52;1.15;;;24.30;48.00;;;;;;5071563;28;20200;-70
2021/08/06 00:51:05;;;;;;;1.17;1.13;;;24.30;47.90;;;;;;5070563;28;20757;-70
2021/08/06 00:53:32;;;;;;;0.90;0.90;;;24.20;47.80;;;;;;5070463;28;20225;-70
2021/08/06 00:55:58;;;;;;;1.35;0.98;;;24.30;48.00;;;;;;5067556;28;20225;-71
2021/08/06 00:58:25;;;;;;;0.90;0.90;;;24.20;47.80;;;;;;5075881;28;20236;-71
2021/08/06 01:00:51;;;;;;;1.10;1.00;;;24.30;47.90;;;;;;5074906;28;20638;-70
2021/08/06 01:03:18;;;;;;;1.52;1.40;;;24.30;47.90;;;;;;5074796;28;20235;-70
2021/08/06 01:05:44;;;;;;;1.00;1.00;;;24.30;47.90;;;;;;5069308;28;20225;-70
2021/08/06 01:08:11;;;;;;;1.10;1.00;;;24.30;47.90;;;;;;5075254;28;20229;-70
2021/08/06 01:10:37;;;;;;;1.23;1.05;;;24.30;47.90;;;;;;5074751;28;20274;-70
2021/08/06 01:13:04;;;;;;;1.20;1.10;;;24.30;47.90;;;;;;5074764;28;20243;-70
2021/08/06 01:15:30;;;;;;;1.65;1.00;;;24.30;48.60;;;;;;5074701;28;20243;-70
2021/08/06 01:17:56;;;;;;;1.25;1.10;;;24.30;47.90;;;;;;5075069;28;20233;-70
2021/08/06 01:20:23;;;;;;;1.10;1.00;;;24.20;47.80;;;;;;5074597;28;20278;-70
2021/08/06 01:22:50;;;;;;;1.15;1.05;;;24.30;47.90;;;;;;5073939;28;20225;-71
2021/08/06 01:25:16;;;;;;;1.20;0.90;;;24.30;48.00;;;;;;5073655;28;20201;-71
2021/08/06 01:27:43;;;;;;;1.65;0.95;;;24.20;47.90;;;;;;5074326;28;20297;-71
2021/08/06 01:30:09;;;;;;;1.27;1.17;;;24.30;47.90;;;;;;5074796;28;20749;-71
2021/08/06 01:32:36;;;;;;;1.42;1.23;;;24.30;47.90;;;;;;5074888;28;20221;-70
2021/08/06 01:35:02;;;;;;;1.20;1.10;;;24.20;47.90;;;;;;5074579;28;20228;-71
2021/08/06 01:37:29;;;;;;;1.55;1.20;;;24.20;47.80;;;;;;5074201;28;20224;-70
2021/08/06 01:39:55;;;;;;;1.45;1.27;;;24.30;47.90;;;;;;5074614;28;20260;-71
2021/08/06 01:42:22;;;;;;;2.33;1.30;;;24.20;47.90;;;;;;5074173;28;20263;-71
2021/08/06 01:44:48;;;;;;;1.00;1.00;;;24.20;47.80;;;;;;5074296;28;20224;-71
2021/08/06 01:47:15;;;;;;;1.30;1.08;;;24.30;47.90;;;;;;5073918;28;20297;-71
2021/08/06 01:49:41;;;;;;;1.20;1.10;;;24.30;48.00;;;;;;5074190;28;20570;-71
2021/08/06 01:52:08;;;;;;;1.20;1.10;;;24.30;47.90;;;;;;5073871;28;20201;-71
2021/08/06 01:54:34;;;;;;;1.05;0.95;;;24.20;47.80;;;;;;5074148;28;20688;-70
2021/08/06 01:57:01;;;;;;;1.83;1.00;;;24.30;47.90;;;;;;5073559;28;20236;-70
2021/08/06 01:59:27;;;;;;;1.00;0.90;;;24.20;47.80;;;;;;5074313;28;20236;-70
2021/08/06 02:01:54;;;;;;;1.00;1.00;;;24.30;48.00;;;;;;5073547;28;20256;-71
2021/08/06 02:04:20;;;;;;;0.90;0.90;;;24.20;47.80;;;;;;5074039;28;20236;-70
2021/08/06 02:06:47;;;;;;;1.20;1.10;;;24.20;47.80;;;;;;5073679;28;20228;-70
2021/08/06 02:09:13;;;;;;;1.30;1.20;;;24.20;47.90;;;;;;5074217;28;20288;-70
2021/08/06 02:11:40;;;;;;;1.10;0.93;;;24.20;47.80;;;;;;5073474;28;20221;-70
2021/08/06 02:14:06;;;;;;;1.20;1.10;;;24.30;47.90;;;;;;5074010;28;20618;-70
2021/08/06 02:16:33;;;;;;;1.17;1.08;;;24.20;47.80;;;;;;5072772;28;20266;-70
2021/08/06 02:18:59;;;;;;;1.00;1.00;;;24.30;47.90;;;;;;5072804;28;20232;-71
2021/08/06 02:21:26;;;;;;;0.95;0.95;;;24.30;47.90;;;;;;5073570;28;20264;-71
2021/08/06 02:23:53;;;;;;;1.20;1.10;;;24.20;47.80;;;;;;5072078;28;20221;-70
2021/08/06 02:26:20;;;;;;;1.35;1.15;;;24.20;47.80;;;;;;5073227;28;20669;-70
2021/08/06 02:28:49;;;;;;;1.38;1.27;;;24.20;47.80;;;;;;5073149;28;20205;-70
2021/08/06 02:31:16;;;;;;;1.15;1.08;;;24.20;47.80;;;;;;5074035;28;20227;-71
2021/08/06 02:33:42;;;;;;;1.02;0.90;;;24.30;47.90;;;;;;5073423;28;20236;-70
2021/08/06 02:36:09;;;;;;;2.00;1.10;;;24.20;47.80;;;;;;5073107;28;20608;-70
2021/08/06 02:38:35;;;;;;;1.10;1.00;;;24.20;47.80;;;;;;5073521;28;20229;-70
2021/08/06 02:41:02;;;;;;;2.75;1.00;;;24.20;47.90;;;;;;5073376;28;20272;-71
2021/08/06 02:43:28;;;;;;;1.45;1.02;;;24.30;47.90;;;;;;5073177;28;20838;-70
2021/08/06 02:45:55;;;;;;;1.10;1.00;;;24.20;47.80;;;;;;5072945;28;20232;-70
2021/08/06 02:48:21;;;;;;;1.20;1.10;;;24.20;47.90;;;;;;5073670;28;20244;-71
2021/08/06 02:50:47;;;;;;;0.90;0.90;;;24.30;47.90;;;;;;5072967;28;20756;-70
2021/08/06 02:53:14;;;;;;;1.38;1.10;;;24.20;47.80;;;;;;5073250;28;20229;-71
2021/08/06 02:55:41;;;;;;;1.55;1.15;;;24.20;47.90;;;;;;5072501;28;20291;-70
2021/08/06 02:58:07;;;;;;;0.80;0.80;;;24.20;47.80;;;;;;5073194;28;20240;-70
2021/08/06 03:00:34;;;;;;;1.38;1.10;;;24.20;47.80;;;;;;5072984;28;20637;-69
2021/08/06 03:03:00;;;;;;;1.70;0.85;;;24.20;47.80;;;;;;5066990;28;20229;-70
2021/08/06 03:05:27;;;;;;;1.20;1.10;;;24.20;47.80;;;;;;5072264;28;20236;-70
2021/08/06 03:07:53;;;;;;;1.17;1.08;;;24.20;47.80;;;;;;5068043;28;20236;-70
2021/08/06 03:10:20;;;;;;;2.15;1.00;;;24.30;47.90;;;;;;5072253;28;20249;-70
2021/08/06 03:12:46;;;;;;;0.98;0.93;;;24.20;47.90;;;;;;5072298;28;20244;-70
2021/08/06 03:15:13;;;;;;;1.05;0.95;;;24.20;47.80;;;;;;5072498;28;20209;-70
2021/08/06 03:17:42;;;;;;;1.85;1.00;;;24.20;47.80;;;;;;5072204;28;20684;-70
2021/08/06 03:20:08;;;;;;;0.90;0.90;;;24.20;47.80;;;;;;5072651;28;20221;-70
2021/08/06 03:22:35;;;;;;;1.58;1.20;;;24.20;47.80;;;;;;5068801;28;20317;-70
2021/08/06 03:25:01;;;;;;;1.08;0.98;;;24.20;47.80;;;;;;5069342;28;20205;-70
2021/08/06 03:27:28;;;;;;;1.30;1.20;;;24.20;47.90;;;;;;5071321;28;20229;-70
2021/08/06 03:29:54;;;;;;;0.93;0.82;;;24.20;47.80;;;;;;5071163;28;20257;-70
2021/08/06 03:32:21;;;;;;;1.20;1.08;;;24.20;47.90;;;;;;5072031;28;20232;-70
2021/08/06 03:34:47;;;;;;;1.65;0.90;;;24.20;47.80;;;;;;5072285;28;20708;-70
2021/08/06 03:37:14;;;;;;;1.00;1.00;;;24.20;47.80;;;;;;5072071;28;20227;-70
2021/08/06 03:39:40;;;;;;;0.95;0.95;;;24.20;47.90;;;;;;5072235;28;20248;-71
2021/08/06 03:42:07;;;;;;;1.20;1.10;;;24.20;47.80;;;;;;5072264;28;20254;-70
2021/08/06 03:44:33;;;;;;;1.08;1.00;;;24.20;47.80;;;;;;5072319;28;20691;-70
2021/08/06 03:47:00;;;;;;;0.90;0.90;;;24.20;47.80;;;;;;5067429;28;20228;-70
2021/08/06 03:49:26;;;;;;;0.95;0.95;;;24.20;47.80;;;;;;5072234;28;20296;-69
2021/08/06 03:51:53;;;;;;;0.90;0.90;;;24.20;47.80;;;;;;5072626;28;20274;-69
2021/08/06 03:54:19;;;;;;;1.00;0.90;;;24.20;47.80;;;;;;5067921;28;20234;-70
2021/08/06 03:56:46;;;;;;;1.20;1.10;;;24.20;47.80;;;;;;5071390;28;20229;-70
2021/08/06 03:59:12;;;;;;;1.10;1.00;;;24.20;47.80;;;;;;5071888;28;20252;-70
2021/08/06 04:01:38;;;;;;;1.13;1.13;;;24.20;47.80;;;;;;5072191;28;20319;-70
2021/08/06 04:04:07;;;;;;;1.17;1.08;;;24.20;47.80;;;;;;5071860;28;20244;-70
2021/08/06 04:06:33;;;;;;;1.00;0.85;;;24.20;47.80;;;;;;5070899;28;20213;-70
2021/08/06 04:09:00;;;;;;;0.90;0.90;;;24.20;47.90;;;;;;5071549;28;20290;-70
2021/08/06 04:11:26;;;;;;;1.10;1.00;;;24.20;47.80;;;;;;5071740;28;20568;-70
2021/08/06 04:13:53;;;;;;;0.85;0.85;;;24.20;47.80;;;;;;5071642;28;20221;-70
2021/08/06 04:16:19;;;;;;;0.80;0.80;;;24.20;47.90;;;;;;5071037;28;20229;-70
2021/08/06 04:18:46;;;;;;;1.38;0.90;;;24.20;47.80;;;;;;5071566;28;20717;-70
2021/08/06 04:21:12;;;;;;;0.90;0.90;;;24.20;47.80;;;;;;5071681;28;20306;-70
2021/08/06 04:23:39;;;;;;;2.15;1.13;;;24.20;47.90;;;;;;5071839;28;20240;-70
2021/08/06 04:26:05;;;;;;;1.15;1.08;;;24.20;47.80;;;;;;5070541;28;20625;-70
2021/08/06 04:28:32;;;;;;;1.05;0.93;;;24.20;47.80;;;;;;5070265;28;20248;-70
2021/08/06 04:31:00;;;;;;;1.20;1.10;;;24.20;47.80;;;;;;5068530;28;20225;-70
2021/08/06 04:33:27;;;;;;;0.82;0.82;;;24.20;47.80;;;;;;5071353;28;20201;-70
2021/08/06 04:35:53;;;;;;;1.10;1.00;;;24.20;47.90;;;;;;5071283;28;20233;-70
2021/08/06 04:38:20;;;;;;;0.93;0.90;;;24.20;47.80;;;;;;5071231;28;20665;-70
2021/08/06 04:40:46;;;;;;;1.20;1.10;;;24.20;47.80;;;;;;5071148;28;20287;-70
2021/08/06 04:43:13;;;;;;;0.90;0.90;;;24.20;47.90;;;;;;5071009;28;20270;-70
2021/08/06 04:45:39;;;;;;;0.90;0.90;;;24.20;47.80;;;;;;5071027;28;20203;-70
2021/08/06 04:48:06;;;;;;;1.48;1.00;;;24.20;47.80;;;;;;5071081;28;20680;-70
2021/08/06 04:50:32;;;;;;;0.90;0.90;;;24.20;47.80;;;;;;5071641;28;20197;-70
2021/08/06 04:52:59;;;;;;;1.20;0.77;;;24.20;47.80;;;;;;5071275;28;20620;-69
2021/08/06 04:55:25;;;;;;;0.95;0.95;;;24.20;47.80;;;;;;5071054;28;20240;-70
2021/08/06 04:57:52;;;;;;;1.20;1.10;;;24.20;47.80;;;;;;5070173;28;20243;-70
2021/08/06 05:00:18;;;;;;;1.23;1.05;;;24.20;48.50;;;;;;5070796;28;20260;-70
2021/08/06 05:02:45;;;;;;;1.20;1.00;;;24.20;47.90;;;;;;5070989;28;20311;-70
2021/08/06 05:05:12;;;;;;;1.00;1.00;;;24.20;47.80;;;;;;5070987;28;20627;-70
2021/08/06 05:07:38;;;;;;;0.90;0.82;;;24.20;47.80;;;;;;5066716;28;20232;-69
2021/08/06 05:10:05;;;;;;;0.90;0.90;;;24.20;47.90;;;;;;5070017;28;20244;-70
2021/08/06 05:12:31;;;;;;;1.10;0.90;;;24.20;47.80;;;;;;5070138;28;20676;-69
2021/08/06 05:14:57;;;;;;;0.85;0.82;;;24.20;47.80;;;;;;5070968;28;20224;-70
2021/08/06 05:17:24;;;;;;;1.20;1.08;;;24.20;47.90;;;;;;5069699;28;20236;-70
2021/08/06 05:19:50;;;;;;;1.15;1.00;;;24.20;47.80;;;;;;5070392;28;20634;-69
2021/08/06 05:22:17;;;;;;;1.20;0.95;;;24.20;47.80;;;;;;5071165;28;20267;-69
2021/08/06 05:24:44;;;;;;;0.80;0.80;;;24.20;47.90;;;;;;5071099;28;20207;-70
2021/08/06 05:27:10;;;;;;;0.85;0.85;;;24.20;47.80;;;;;;5069578;28;20197;-70
2021/08/06 05:29:37;;;;;;;0.90;0.90;;;24.20;47.80;;;;;;5069134;28;20709;-70
2021/08/06 05:32:03;;;;;;;1.10;1.00;;;24.20;47.80;;;;;;5069569;28;20205;-70
2021/08/06 05:34:30;;;;;;;1.10;1.00;;;24.20;47.80;;;;;;5071294;28;20240;-70
2021/08/06 05:36:56;;;;;;;1.05;1.00;;;24.20;47.80;;;;;;5070103;28;20254;-69
2021/08/06 05:39:23;;;;;;;1.33;1.00;;;24.20;47.80;;;;;;5070406;28;20259;-70
2021/08/06 05:41:49;;;;;;;1.00;1.00;;;24.20;47.70;;;;;;5071094;28;20287;-70
2021/08/06 05:44:15;;;;;;;0.80;0.80;;;24.20;47.80;;;;;;5074753;28;20255;-69
2021/08/06 05:46:42;;;;;;;1.30;0.98;;;24.20;47.80;;;;;;5074206;28;20236;-69
2021/08/06 05:49:08;;;;;;;1.15;1.00;;;24.20;47.80;;;;;;5073988;28;20241;-70
2021/08/06 05:51:35;;;;;;;0.95;0.90;;;24.20;47.70;;;;;;5074434;28;20232;-70
2021/08/06 05:54:03;;;;;;;0.93;0.93;;;24.20;47.70;;;;;;5073958;28;20562;-70
2021/08/06 05:56:30;;;;;;;1.20;1.10;;;24.20;47.70;;;;;;5074060;28;20198;-70
2021/08/06 05:58:56;;;;;;;0.80;0.80;;;24.20;47.70;;;;;;5074132;28;20255;-70
2021/08/06 06:01:23;;;;;;;0.90;0.90;;;24.20;47.80;;;;;;5072906;28;20229;-70
2021/08/06 06:03:49;;;;;;;1.30;0.98;;;24.20;47.80;;;;;;5073068;28;20232;-70
2021/08/06 06:06:16;;;;;;;0.90;0.90;;;24.20;47.80;;;;;;5073771;28;20256;-70
2021/08/06 06:08:42;;;;;;;1.23;1.10;;;24.20;47.70;;;;;;5073927;28;20654;-70
2021/08/06 06:11:09;;;;;;;1.00;0.90;;;24.30;47.80;;;;;;5073778;28;20232;-70
2021/08/06 06:13:36;;;;;;;1.00;0.90;;;24.20;47.70;;;;;;5073987;28;20254;-70
2021/08/06 06:16:02;;;;;;;0.90;0.90;;;24.20;47.70;;;;;;5073012;28;20209;-69
2021/08/06 06:18:29;;;;;;;1.50;0.90;;;24.20;47.70;;;;;;5073435;28;20275;-70
2021/08/06 06:20:55;;;;;;;1.00;1.00;;;24.20;48.30;;;;;;5073344;28;20240;-69
2021/08/06 06:23:22;;;;;;;1.27;1.17;;;24.20;47.80;;;;;;5073786;28;20233;-70
2021/08/06 06:25:50;;;;;;;1.08;0.90;;;24.20;47.80;;;;;;5073273;28;20241;-70
2021/08/06 06:28:16;;;;;;;0.80;0.80;;;24.20;47.70;;;;;;5073460;28;20224;-70
2021/08/06 06:30:43;;;;;;;1.00;0.80;;;24.20;47.80;;;;;;5071768;28;20205;-70
2021/08/06 06:33:09;;;;;;;0.80;0.80;;;24.20;47.70;;;;;;5071645;28;20235;-70
2021/08/06 06:35:35;;;;;;;0.80;0.80;;;24.20;47.80;;;;;;5072880;28;20292;-70
2021/08/06 06:38:02;;;;;;;0.98;0.90;;;24.20;47.80;;;;;;5073082;28;20279;-70
2021/08/06 06:40:28;;;;;;;1.20;1.10;;;24.20;47.90;;;;;;5073549;28;20235;-69
2021/08/06 06:42:55;;;;;;;0.90;0.90;;;24.20;47.80;;;;;;5072816;28;20351;-70
2021/08/06 06:45:21;;;;;;;0.93;0.93;;;24.20;47.80;;;;;;5072909;28;20229;-69
2021/08/06 06:47:48;;;;;;;0.88;0.88;;;24.20;47.80;;;;;;5072708;28;20255;-67
2021/08/06 06:50:14;;;;;;;1.00;0.90;;;24.30;47.80;;;;;;5072440;28;20596;-69
2021/08/06 06:52:41;;;;;;;1.05;0.90;;;24.30;47.70;;;;;;5073436;28;20618;-69
2021/08/06 06:55:07;;;;;;;1.85;1.10;;;24.20;47.80;;;;;;5061397;28;20233;-69
2021/08/06 06:57:34;;;;;;;2.55;1.13;;;24.20;47.80;;;;;;5053127;28;20614;-69
2021/08/06 07:00:00;;;;;;;1.20;1.10;;;24.30;47.90;;;;;;5072594;28;20287;-69
2021/08/06 07:02:27;;;;;;;2.63;1.40;;;24.20;47.90;;;;;;5072733;28;20283;-69
2021/08/06 07:04:53;;;;;;;1.20;1.10;;;24.20;47.80;;;;;;5072887;28;20213;-69
2021/08/06 07:07:21;;;;;;;1.20;1.10;;;24.20;47.90;;;;;;5072408;28;20232;-69
2021/08/06 07:09:47;;;;;;;0.93;0.93;;;24.30;47.90;;;;;;5066739;28;20609;-69
2021/08/06 07:12:14;;;;;;;2.35;1.02;;;24.20;47.80;;;;;;5072683;28;20288;-69
2021/08/06 07:14:40;;;;;;;1.08;0.75;;;24.20;47.90;;;;;;5070601;28;20201;-69
2021/08/06 07:17:07;;;;;;;2.03;1.20;;;24.20;47.80;;;;;;5072192;28;20225;-67
2021/08/06 07:19:33;;;;;;;2.97;1.30;;;24.20;47.80;;;;;;5072680;28;20664;-66
2021/08/06 07:22:00;;;;;;;13.30;2.00;;;24.20;47.80;;;;;;5072528;28;20251;-65
2021/08/06 07:24:26;;;;;;;4.47;1.83;;;24.20;48.50;;;;;;5072760;28;20244;-68
2021/08/06 07:26:53;;;;;;;2.03;1.10;;;24.20;47.80;;;;;;5071796;28;20251;-67
2021/08/06 07:29:19;;;;;;;1.55;1.17;;;24.20;47.80;;;;;;5072221;28;20228;-63
2021/08/06 07:31:46;;;;;;;2.42;1.15;;;24.20;47.80;;;;;;5070643;28;20225;-63
2021/08/06 07:34:12;;;;;;;4.05;1.50;;;24.20;47.80;;;;;;5071840;28;20274;-67
2021/08/06 07:36:39;;;;;;;4.10;1.38;;;24.20;47.90;;;;;;5067765;28;20233;-61
2021/08/06 07:39:05;;;;;;;4.20;1.67;;;24.20;48.30;;;;;;5059328;28;20724;-62
2021/08/06 07:41:32;;;;;;;6.63;2.33;;;24.30;47.90;;;;;;5069873;28;20193;-56
2021/08/06 07:43:59;;;;;;;8.45;1.90;;;24.30;48.20;;;;;;5071821;28;20286;-61
2021/08/06 07:46:25;;;;;;;5.88;2.17;;;24.30;48.70;;;;;;5068402;28;20288;-59
2021/08/06 07:48:52;;;;;;;4.95;1.95;;;24.30;48.00;;;;;;5051811;28;20759;-60
2021/08/06 07:51:18;;;;;;;7.15;2.47;;;24.30;48.70;;;;;;5069220;28;20197;-62
2021/08/06 07:53:45;;;;;;;9.52;2.50;;;24.30;49.00;;;;;;5067680;28;20221;-61
2021/08/06 07:56:13;;;;;;;6.95;2.40;;;24.30;49.20;;;;;;5062613;28;20263;-61
2021/08/06 07:58:40;;;;;;;10.52;3.53;;;24.30;49.60;;;;;;5071565;28;20263;-60
2021/08/06 08:01:06;;;;;;;9.45;3.05;;;24.30;49.90;;;;;;5071366;28;20293;-59
2021/08/06 08:03:33;;;;;;;7.93;2.70;;;24.30;50.40;;;;;;5071284;28;20243;-71
2021/08/06 08:06:00;;;;;;;3.45;2.00;;;24.20;50.30;;;;;;5071076;28;20252;-71
2021/08/06 08:08:26;;;;;;;7.93;2.22;;;23.60;47.40;;;;;;5070091;28;20574;-72
2021/08/06 08:10:53;;;;;;;3.25;1.80;;;23.10;50.10;;;;;;5071480;28;20231;-71
2021/08/06 08:13:19;;;;;;;1.95;1.75;;;22.00;50.50;;;;;;5071764;28;20424;-71
2021/08/06 08:15:46;;;;;;;1.70;1.60;;;21.70;50.30;;;;;;5071077;28;20201;-71
2021/08/06 08:18:12;;;;;;;1.67;1.58;;;21.80;50.80;;;;;;5071339;28;20282;-71
2021/08/06 08:20:38;;;;;;;1.90;1.65;;;21.50;51.00;;;;;;5071326;28;20228;-71
2021/08/06 08:23:05;;;;;;;2.40;2.00;;;21.90;51.20;;;;;;5071484;28;20264;-71
2021/08/06 08:25:31;;;;;;;2.08;1.90;;;21.50;51.40;;;;;;5071498;28;20193;-70
2021/08/06 08:27:58;;;;;;;3.45;1.80;;;21.90;51.10;;;;;;5071009;28;20745;-71
2021/08/06 08:30:24;;;;;;;2.38;1.85;;;22.00;50.50;;;;;;5071078;28;20254;-70
2021/08/06 08:32:51;;;;;;;1.70;1.60;;;21.90;50.50;;;;;;5070325;28;20553;-72
2021/08/06 08:35:18;;;;;;;2.65;1.67;;;21.70;50.90;;;;;;5068642;28;20239;-70
2021/08/06 08:37:44;;;;;;;2.88;1.73;;;21.80;51.10;;;;;;5070539;28;20270;-70
2021/08/06 08:40:11;;;;;;;2.08;1.80;;;22.10;50.60;;;;;;5067158;28;20229;-72
2021/08/06 08:42:37;;;;;;;1.90;1.65;;;21.70;51.10;;;;;;5054915;28;20253;-69
2021/08/06 08:45:04;;;;;;;2.85;1.42;;;22.30;50.30;;;;;;5066130;28;20255;-71
2021/08/06 08:47:32;;;;;;;2.65;1.58;;;22.70;49.60;;;;;;5067386;28;20207;-62
2021/08/06 08:49:59;;;;;;;2.42;1.60;;;23.00;49.20;;;;;;5072536;28;20228;-71
2021/08/06 08:52:26;;;;;;;2.88;1.60;;;23.30;48.90;;;;;;5072681;28;20208;-77
2021/08/06 08:54:52;;;;;;;3.40;1.80;;;23.40;48.60;;;;;;5065193;28;20209;-70
2021/08/06 08:57:19;;;;;;;2.75;1.50;;;23.40;48.40;;;;;;5062415;28;20205;-71
2021/08/06 08:59:45;;;;;;;2.70;1.52;;;23.50;48.40;;;;;;5055253;28;20284;-71
2021/08/06 09:02:12;;;;;;;1.88;1.65;;;23.50;48.40;;;;;;5057196;28;20205;-71
2021/08/06 09:04:39;;;;;;;2.53;1.30;;;23.50;48.50;;;;;;5067734;28;20212;-71
2021/08/06 09:07:08;;;;;;;1.52;1.30;;;23.60;48.50;;;;;;5070319;28;20224;-71
2021/08/06 09:09:35;;;;;;;2.50;1.70;;;23.60;48.40;;;;;;5070437;28;20244;-71
2021/08/06 09:12:02;;;;;;;2.45;1.70;;;23.60;48.30;;;;;;5058316;28;20210;-73
2021/08/06 09:14:28;;;;;;;2.38;1.67;;;23.70;49.20;;;;;;5069627;28;20236;-61
2021/08/06 09:16:55;;;;;;;2.13;1.67;;;23.80;49.00;;;;;;5070471;28;20778;-62
2021/08/06 09:19:21;;;;;;;3.55;1.33;;;23.80;48.50;;;;;;5074554;28;20249;-63
2021/08/06 09:21:48;;;;;;;3.17;1.83;;;23.80;48.50;;;;;;5073912;28;20229;-63
2021/08/06 09:24:14;;;;;;;2.13;1.48;;;23.80;48.80;;;;;;5073758;28;20648;-64
2021/08/06 09:26:44;;;;;;;3.50;1.63;;;23.90;49.00;;;;;;5073157;28;20225;-61
2021/08/06 09:29:11;;;;;;;3.00;1.77;;;23.90;48.80;;;;;;5074606;28;20231;-64
2021/08/06 09:31:37;;;;;;;1.95;1.48;;;23.90;48.70;;;;;;5074337;28;20205;-63
2021/08/06 09:34:04;;;;;;;2.22;1.45;;;23.80;48.70;;;;;;5073515;28;20197;-62
2021/08/06 09:36:30;;;;;;;1.55;1.40;;;23.90;48.60;;;;;;5072930;28;20673;-66
2021/08/06 09:38:57;;;;;;;3.10;1.50;;;23.90;48.60;;;;;;5073613;28;20274;-63
2021/08/06 09:41:23;;;;;;;2.30;1.48;;;23.90;48.40;;;;;;5073591;28;20240;-62
2021/08/06 09:43:50;;;;;;;1.67;1.40;;;23.90;48.30;;;;;;5073516;28;20704;-62
2021/08/06 09:46:16;;;;;;;1.40;1.30;;;24.00;48.50;;;;;;5071766;28;20680;-62
2021/08/06 09:48:43;;;;;;;1.48;1.35;;;23.90;48.40;;;;;;5073255;28;20228;-62
2021/08/06 09:51:09;;;;;;;1.67;1.55;;;23.90;48.00;;;;;;5066812;28;20229;-62
2021/08/06 09:53:36;;;;;;;1.73;1.42;;;23.90;48.30;;;;;;5072851;28;20730;-60
2021/08/06 09:56:02;;;;;;;1.30;1.20;;;23.90;48.10;;;;;;5064041;28;20436;-66
2021/08/06 09:58:29;;;;;;;2.65;1.30;;;23.90;48.70;;;;;;5072394;28;20705;-61
2021/08/06 10:00:56;;;;;;;2.60;1.25;;;24.00;47.70;;;;;;5072374;28;20282;-62
2021/08/06 10:03:22;;;;;;;2.80;1.30;;;23.90;47.60;;;;;;5073228;28;20282;-62
2021/08/06 10:05:49;;;;;;;3.80;1.60;;;23.90;47.00;;;;;;5072914;28;20240;-61
2021/08/06 10:08:15;;;;;;;2.10;1.58;;;23.90;46.80;;;;;;5073276;28;20251;-62
2021/08/06 10:10:41;;;;;;;1.67;1.40;;;23.90;46.80;;;;;;5073886;28;20197;-62
2021/08/06 10:13:08;;;;;;;3.83;1.85;;;23.90;46.90;;;;;;5073615;28;20251;-67
2021/08/06 10:15:34;;;;;;;4.05;1.67;;;24.00;47.70;;;;;;5072644;28;20692;-66
2021/08/06 10:18:01;;;;;;;3.53;1.90;;;24.00;47.70;;;;;;5069967;28;20282;-65
2021/08/06 10:20:27;;;;;;;3.55;1.55;;;24.00;47.40;;;;;;5073150;28;20723;-65
2021/08/06 10:22:54;;;;;;;3.22;2.10;;;24.00;48.30;;;;;;5069969;28;20217;-69
2021/08/06 10:25:20;;;;;;;6.55;1.95;;;23.80;45.60;;;;;;5069672;28;20333;-64
2021/08/06 10:27:47;;;;;;;3.05;1.70;;;23.90;46.60;;;;;;5073212;28;20275;-66
2021/08/06 10:30:13;;;;;;;6.47;1.70;;;24.00;46.60;;;;;;5061428;28;20221;-68
2021/08/06 10:32:40;;;;;;;5.47;2.15;;;24.00;46.70;;;;;;5073376;28;20229;-65
2021/08/06 10:35:06;;;;;;;7.85;1.80;;;24.10;47.20;;;;;;5071432;28;20254;-64
2021/08/06 10:37:33;;;;;;;16.98;6.07;;;24.10;47.10;;;;;;5069799;28;21408;-61
2021/08/06 10:39:59;;;;;;;14.38;6.22;;;24.10;47.80;;;;;;5072390;28;20233;-65
2021/08/06 10:42:26;;;;;;;21.33;9.43;;;24.20;47.80;;;;;;5071093;28;20254;-62
2021/08/06 10:44:53;;;;;;;30.75;15.25;;;24.20;47.80;;;;;;5071321;28;20256;-61
2021/08/06 10:47:20;;;;;;;22.10;11.23;;;24.20;47.80;;;;;;5070875;28;20270;-67
2021/08/06 10:49:46;;;;;;;22.55;11.70;;;24.30;48.00;;;;;;5069392;28;20229;-61
2021/08/06 10:52:13;;;;;;;24.00;12.32;;;24.30;48.30;;;;;;5068416;28;20296;-65
2021/08/06 10:54:39;;;;;;;23.23;11.93;;;24.30;49.20;;;;;;5070345;28;20229;-61
2021/08/06 10:57:06;;;;;;;24.17;12.35;;;24.30;49.50;;;;;;5069795;28;20245;-60
2021/08/06 10:59:32;;;;;;;24.83;12.05;;;24.40;49.70;;;;;;5071621;28;20243;-61
2021/08/06 11:01:59;;;;;;;23.05;11.98;;;24.40;49.40;;;;;;5071344;28;20288;-62
2021/08/06 11:04:25;;;;;;;19.52;11.27;;;24.40;49.20;;;;;;5070805;28;20268;-62
2021/08/06 11:06:52;;;;;;;22.95;11.70;;;24.40;48.80;;;;;;5069613;28;20225;-64
2021/08/06 11:09:19;;;;;;;20.70;10.65;;;24.40;49.50;;;;;;5071189;28;20205;-65
2021/08/06 11:11:45;;;;;;;20.60;10.73;;;24.30;49.10;;;;;;5071251;28;20247;-65
2021/08/06 11:14:12;;;;;;;19.17;10.07;;;24.30;48.80;;;;;;5070028;28;20201;-65
2021/08/06 11:16:38;;;;;;;17.73;10.30;;;24.30;48.80;;;;;;5070456;28;20274;-64
2021/08/06 11:19:05;;;;;;;18.67;8.93;;;24.30;48.60;;;;;;5064104;28;20271;-65
2021/08/06 11:21:31;;;;;;;19.33;10.35;;;24.30;48.50;;;;;;5071898;28;20201;-64
2021/08/06 11:23:58;;;;;;;18.70;9.55;;;24.30;48.80;;;;;;5072029;28;20279;-63
2021/08/06 11:26:25;;;;;;;14.35;7.95;;;24.30;48.60;;;;;;5069905;28;20308;-65
2021/08/06 11:28:53;;;;;;;13.70;7.63;;;24.40;49.00;;;;;;5072517;28;20193;-64
2021/08/06 11:31:19;;;;;;;13.93;7.20;;;24.40;49.00;;;;;;5071091;28;20539;-64
2021/08/06 11:33:46;;;;;;;14.65;7.60;;;24.40;49.20;;;;;;5071098;28;20228;-64
2021/08/06 11:36:13;;;;;;;13.60;7.07;;;24.40;49.10;;;;;;5071054;28;20197;-63
2021/08/06 11:38:39;;;;;;;12.00;6.82;;;24.40;49.00;;;;;;5070685;28;20634;-64
2021/08/06 11:41:06;;;;;;;16.23;7.18;;;24.40;49.10;;;;;;5066709;28;20231;-64
2021/08/06 11:43:32;;;;;;;15.75;7.35;;;24.40;50.20;;;;;;5068467;28;20355;-64
2021/08/06 11:45:59;;;;;;;16.92;7.38;;;24.40;49.20;;;;;;5069827;28;20584;-64
2021/08/06 11:48:25;;;;;;;15.00;6.55;;;24.40;49.40;;;;;;5076690;28;20252;-66
2021/08/06 11:50:52;;;;;;;13.48;5.93;;;24.40;49.40;;;;;;5074776;28;20228;-65
2021/08/06 11:53:19;;;;;;;12.70;6.22;;;24.40;49.20;;;;;;5069027;28;20220;-64
2021/08/06 11:55:45;;;;;;;11.52;6.20;;;24.40;49.20;;;;;;5067417;28;20232;-65
2021/08/06 11:58:12;;;;;;;11.35;5.55;;;24.40;49.10;;;;;;5069620;28;20279;-65
2021/08/06 12:00:38;;;;;;;8.27;4.70;;;24.40;48.70;;;;;;5071164;28;20237;-64
2021/08/06 12:03:05;;;;;;;10.95;5.05;;;24.40;48.70;;;;;;5070931;28;20243;-64
2021/08/06 12:05:31;;;;;;;9.30;4.70;;;24.40;48.60;;;;;;5069203;28;20259;-66
2021/08/06 12:07:58;;;;;;;8.77;4.00;;;24.40;49.30;;;;;;5060336;28;20271;-66
2021/08/06 12:10:24;;;;;;;8.50;4.35;;;24.40;48.60;;;;;;5050965;28;20623;-64
2021/08/06 12:12:51;;;;;;;10.93;4.75;;;24.40;48.60;;;;;;5056408;28;20201;-65
2021/08/06 12:15:17;;;;;;;8.27;4.40;;;24.40;48.50;;;;;;5074402;28;20322;-63
2021/08/06 12:17:44;;;;;;;7.43;4.30;;;24.40;48.30;;;;;;5069704;28;20221;-63
2021/08/06 12:20:10;;;;;;;7.72;3.72;;;24.40;48.10;;;;;;5072930;28;20255;-64
2021/08/06 12:22:37;;;;;;;7.18;3.55;;;24.40;48.00;;;;;;5071628;28;20243;-65
2021/08/06 12:25:03;;;;;;;6.97;3.85;;;24.40;48.00;;;;;;5069980;28;20316;-64
2021/08/06 12:27:30;;;;;;;6.80;3.92;;;24.40;48.00;;;;;;5069190;28;20589;-66
2021/08/06 12:29:56;;;;;;;7.60;3.72;;;24.40;48.00;;;;;;5072296;28;20281;-63
2021/08/06 12:32:23;;;;;;;4.72;3.05;;;24.40;48.00;;;;;;5070807;28;20223;-64
2021/08/06 12:34:49;;;;;;;16.65;5.20;;;24.40;48.00;;;;;;5070813;28;20288;-61
2021/08/06 12:37:16;;;;;;;15.23;5.05;;;24.50;48.10;;;;;;5074086;28;20225;-63
2021/08/06 12:39:43;;;;;;;17.25;5.38;;;24.50;47.80;;;;;;5070879;28;20193;-63
2021/08/06 12:42:09;;;;;;;14.48;4.70;;;24.50;48.00;;;;;;5068150;28;20249;-62